Aérodrome :
LOGIN :

S'inscrire | Disclaimer

   EN    FR    IT 

 










Légende :    VFR   VFR Marginal   IFR   IFR Intensif   IFR Très Intensif
Visi : 
Plafond : 
>= 8 km
>= 3000ft
5 à 8 km
1000 à 3000 ft
1500m à 5 km
500 à 1000 ft
800 à 1500m
200 à 500 ft
< 800m
< 200 ft
Symboles :   Orages  Brouillard  Fortes neiges  Fortes précipitations  Vent > 20 kt
SIGMETs :   Divers  Orages  Givrage  Turbulence  Onde Orograph.  Cendres Volcan.







- Altitude de l'aérodrome : 433 ft
- Voir les cartes d'approche


LFOC - Chateaudun

DERNIER METAR :
  • 281200Z AUTO 30007KT 260V360 9999 FEW030 SCT039 BKN046 14/05 Q1017 TEMPO 3000 SHRA SCT015 BKN020TCU

METARs EXPIRÉS :
  • 281130Z AUTO 29008KT 240V340 9999 SCT029 BKN036 BKN047 12/05 Q1017 TEMPO 3000 SHRA SCT015 BKN020TCU
  • 281100Z AUTO 27008KT 220V320 9999 SCT022 SCT032 BKN045 12/06 Q1018 TEMPO 3000 SHRA SCT015 BKN020TCU
  • 281030Z AUTO 27010KT 240V320 9999 BKN022 BKN035 BKN078 12/06 Q1018 TEMPO 3000 SHRA SCT015 BKN020TCU
  • 281000Z AUTO 29009KT 9999 BKN020 BKN084 OVC100 10/05 Q1018 TEMPO 3000 SHRA SCT015 BKN020TCU
  • 280930Z AUTO 26007KT 220V300 9999 FEW014 BKN084 10/05 Q1018 TEMPO 3000 SHRA SCT015 BKN020TCU

TAF TAF LFOC
Valide du 28 à 09h jusqu'au 29 à 09h UTC


280800Z 2809/2909 26008KT 9999 SCT040 BKN060
BECMG 2809/2811 BKN025TCU
TEMPO 2811/2821 3000 SHRA SCT015 BKN020TCU
BECMG 2821/2822 BKN025
BECMG 2901/2903 2000 BR
PROB30
TEMPO 2903/2906 0900 FG
Pas de NOTAMs connus pour ce terrain.



MET'MAP, la Météo Aéronautique d'un coup d'oeil ! - Copyright ORBIFLY Décembre 2007 - Disclaimer

ORBIFLY MET'MAP TEAM :

Programmation & Développement : Alexandra Zaïnal
Conception & Développement : Baudouin d'Aumeries
Co-Programmation & Développement : Marc-Olivier Méhu
Soutien technique & logistique : Manuel Goepfert

Contact : metmap@orbifly.com




SOURCES & CREDITS :

   NOAA